Time;durP1;ratioP1;P1;durP2;ratioP2;P2;SDS_P1;SDS_P2;PMS_P1;PMS_P2;Temp;Humidity;BMP_temperature;BMP_pressure;BME280_temperature;BME280_humidity;BME280_pressure;Samples;Min_cycle;Max_cycle;Signal;HPM_P1;HPM_P2
2022/12/24 00:00:04;;;;;;;47.10;19.77;;;;;;;;;;5093444;28;20412;-73
2022/12/24 00:02:31;;;;;;;47.20;20.40;;;;;;;;;;5076513;28;20399;-73
2022/12/24 00:04:57;;;;;;;49.60;21.25;;;;;;;;;;5090876;28;20423;-73
2022/12/24 00:07:23;;;;;;;49.35;21.02;;;;;;;;;;5093019;28;20475;-80
2022/12/24 00:09:49;;;;;;;48.40;20.67;;;;;;;;;;5089921;28;20408;-80
2022/12/24 00:12:15;;;;;;;47.03;20.73;;;;;;;;;;5079139;28;20553;-80
2022/12/24 00:14:41;;;;;;;50.70;20.92;;;;;;;;;;5072206;28;20422;-80
2022/12/24 00:17:07;;;;;;;44.20;19.87;;;;;;;;;;5073844;28;20411;-80
2022/12/24 00:19:33;;;;;;;42.95;19.13;;;;;;;;;;5073272;28;20438;-80
2022/12/24 00:21:59;;;;;;;49.63;20.55;;;;;;;;;;5090196;28;20783;-80
2022/12/24 00:24:25;;;;;;;49.23;19.70;;;;;;;;;;5072653;28;20418;-80
2022/12/24 00:26:51;;;;;;;43.20;19.27;;;;;;;;;;5073549;28;20402;-80
2022/12/24 00:29:17;;;;;;;48.05;20.60;;;;;;;;;;5087335;28;20419;-80
2022/12/24 00:31:43;;;;;;;51.75;20.80;;;;;;;;;;5095661;28;20465;-80
2022/12/24 00:34:12;;;;;;;55.67;21.15;;;;;;;;;;5069608;28;20440;-80
2022/12/24 00:36:38;;;;;;;54.95;21.50;;;;;;;;;;5089409;28;20419;-80
2022/12/24 00:39:04;;;;;;;55.33;21.20;;;;;;;;;;5090724;28;20419;-80
2022/12/24 00:41:30;;;;;;;54.13;21.02;;;;;;;;;;5067816;28;20428;-80
2022/12/24 00:43:56;;;;;;;53.10;21.35;;;;;;;;;;5069291;28;20416;-80
2022/12/24 00:46:23;;;;;;;66.80;26.30;;;7.50;99.90;;;;;;5086766;28;20741;-80
2022/12/24 00:48:49;;;;;;;48.40;21.95;;;;;;;;;;5079007;28;20419;-73
2022/12/24 00:51:16;;;;;;;50.55;21.55;;;;;;;;;;5095699;28;20420;-74
2022/12/24 00:53:42;;;;;;;49.78;21.17;;;;;;;;;;5087881;28;20423;-74
2022/12/24 00:56:08;;;;;;;58.95;21.95;;;;;;;;;;5095026;28;20416;-74
2022/12/24 00:58:34;;;;;;;58.33;22.70;;;;;;;;;;5089129;28;20448;-80
2022/12/24 01:01:00;;;;;;;56.83;21.38;;;;;;;;;;5060953;28;21447;-80
2022/12/24 01:03:35;;;;;;;52.83;20.98;;;;;;;;;;5096699;27;20407;-80
2022/12/24 01:06:02;;;;;;;53.53;21.75;;;;;;;;;;5096310;28;20423;-74
2022/12/24 01:08:28;;;;;;;53.45;21.42;;;;;;;;;;5093533;27;20416;-73
2022/12/24 01:10:54;;;;;;;66.50;23.23;;;;;;;;;;5090673;28;20420;-74
2022/12/24 01:13:20;;;;;;;63.88;22.98;;;;;;;;;;5097195;28;20464;-74
2022/12/24 01:15:46;;;;;;;60.00;22.15;;;;;;;;;;5093177;28;20420;-73
2022/12/24 01:18:12;;;;;;;59.27;24.17;;;;;;;;;;5079415;28;20501;-74
2022/12/24 01:20:39;;;;;;;63.42;23.60;;;;;;;;;;5075290;28;20445;-74
2022/12/24 01:23:05;;;;;;;67.43;24.17;;;;;;;;;;5095175;28;20491;-74
2022/12/24 01:25:31;;;;;;;100.87;36.60;;;;;;;;;;5092962;28;20495;-74
2022/12/24 01:27:57;;;;;;;84.50;27.75;;;;;;;;;;5074094;28;20422;-74
2022/12/24 01:30:23;;;;;;;77.75;29.23;;;;;;;;;;5078326;28;20418;-74
2022/12/24 01:32:49;;;;;;;78.90;25.60;;;;;;;;;;5096740;28;20414;-73
2022/12/24 01:35:15;;;;;;;72.03;23.88;;;;;;;;;;5088411;27;21203;-74
2022/12/24 01:37:42;;;;;;;78.50;26.92;;;;;;;;;;5094216;28;20484;-74
2022/12/24 01:45:47;;;;;;;96.22;29.02;;;;;;;;;;5095641;28;20914;-74
2022/12/24 01:48:31;;;;;;;95.60;29.02;;;;;;;;;;5092999;28;20503;-73
2022/12/24 01:51:02;;;;;;;69.22;24.55;;;;;;;;;;5077767;28;20452;-74
2022/12/24 01:53:28;;;;;;;63.63;24.10;;;;;;;;;;5096698;28;20392;-74
2022/12/24 01:55:55;;;;;;;61.65;25.00;;;;;;;;;;5095076;28;20420;-74
2022/12/24 01:58:22;;;;;;;62.40;24.50;;;;;;;;;;5093911;28;20412;-74
2022/12/24 02:00:48;;;;;;;59.25;24.77;;;;;;;;;;5093947;28;20528;-74
2022/12/24 02:03:16;;;;;;;50.53;23.02;;;;;;;;;;5076324;28;20831;-74
2022/12/24 02:05:46;;;;;;;56.15;24.75;;;;;;;;;;5094187;28;20422;-74
2022/12/24 02:08:13;;;;;;;56.33;24.70;;;;;;;;;;5094220;28;20420;-74
2022/12/24 02:10:39;;;;;;;57.97;25.00;;;;;;;;;;5096059;28;20396;-74
2022/12/24 02:13:06;;;;;;;57.30;24.25;;;;;;;;;;5089993;28;20413;-74
2022/12/24 02:16:06;;;;;;;52.75;24.40;;;7.80;99.90;;;;;;5076089;28;20418;-74
2022/12/24 02:18:39;;;;;;;54.17;24.43;;;;;;;;;;5056389;28;20421;-74
2022/12/24 02:21:17;;;;;;;54.13;23.65;;;;;;;;;;5095166;28;20408;-73
2022/12/24 02:24:23;;;;;;;52.80;24.13;;;7.70;99.90;;;;;;5075976;27;20471;-74
2022/12/24 02:27:09;;;;;;;57.03;24.57;;;;;;;;;;5075050;28;20401;-74
2022/12/24 02:29:44;;;;;;;51.42;23.50;;;;;;;;;;5088410;28;20736;-74
2022/12/24 02:32:12;;;;;;;52.90;23.73;;;;;;;;;;5072068;28;20447;-74
2022/12/24 02:34:43;;;;;;;44.40;21.83;;;;;;;;;;5093084;28;20420;-74
2022/12/24 02:37:24;;;;;;;45.00;21.90;;;;;;;;;;5095858;28;20466;-74
2022/12/24 02:39:50;;;;;;;43.10;21.77;;;;;;;;;;5072293;28;20425;-74
2022/12/24 02:42:20;;;;;;;42.88;21.13;;;;;;;;;;5077086;27;20423;-81
2022/12/24 02:44:48;;;;;;;41.58;20.15;;;;;;;;;;5090376;28;21000;-81
2022/12/24 02:47:15;;;;;;;38.65;21.23;;;;;;;;;;5093060;28;20931;-81
2022/12/24 02:49:44;;;;;;;42.55;20.48;;;;;;;;;;5092964;28;20416;-81
2022/12/24 02:52:28;;;;;;;39.35;20.25;;;;;;;;;;5074199;28;20922;-81
2022/12/24 02:54:54;;;;;;;38.03;18.60;;;;;;;;;;5067716;28;20778;-81
2022/12/24 02:57:23;;;;;;;37.05;19.05;;;;;;;;;;5074743;28;20402;-81
2022/12/24 02:59:57;;;;;;;34.75;18.02;;;;;;;;;;5091164;28;20420;-81
2022/12/24 03:02:32;;;;;;;33.30;18.45;;;;;;;;;;5094202;28;20423;-81
2022/12/24 03:05:18;;;;;;;36.10;18.42;;;;;;;;;;5094321;28;20412;-81
2022/12/24 03:07:47;;;;;;;31.90;16.85;;;;;;;;;;5094795;28;20408;-80
2022/12/24 03:10:16;;;;;;;31.50;15.80;;;;;;;;;;5094145;28;20419;-81
2022/12/24 03:12:49;;;;;;;30.97;15.50;;;8.70;99.90;;;;;;5091222;27;20997;-81
2022/12/24 03:15:17;;;;;;;33.80;14.90;;;;;;;;;;5076570;28;20489;-81
2022/12/24 03:17:46;;;;;;;29.90;13.90;;;8.10;99.90;;;;;;5094921;28;20887;-81
2022/12/24 03:20:14;;;;;;;30.77;13.48;;;;;;;;;;5092090;28;20503;-81
2022/12/24 03:22:40;;;;;;;32.85;11.65;;;;;;;;;;5074978;28;20426;-81
2022/12/24 03:25:07;;;;;;;33.72;10.65;;;;;;;;;;5092423;28;20497;-81
2022/12/24 03:27:33;;;;;;;34.83;11.18;;;;;;;;;;5077596;27;20872;-81
2022/12/24 03:30:00;;;;;;;31.70;9.20;;;;;;;;;;5093319;28;20470;-81
2022/12/24 03:32:30;;;;;;;34.28;8.27;;;;;;;;;;5077415;28;20516;-81
2022/12/24 03:34:56;;;;;;;33.55;8.70;;;;;;;;;;5089844;28;20908;-81
2022/12/24 03:37:23;;;;;;;36.22;7.30;;;8.60;99.90;;;;;;5093583;28;20412;-81
2022/12/24 03:39:49;;;;;;;36.67;7.85;;;;;;;;;;5077687;28;20475;-81
2022/12/24 03:42:18;;;;;;;41.22;7.75;;;;;;;;;;5092292;28;20424;-81
2022/12/24 03:44:44;;;;;;;35.58;6.85;;;;;;;;;;5076145;28;20415;-82
2022/12/24 03:47:12;;;;;;;34.88;6.63;;;;;;;;;;5074083;28;20453;-81
2022/12/24 03:49:39;;;;;;;41.88;7.70;;;;;;;;;;5053553;28;20421;-80
2022/12/24 03:52:05;;;;;;;32.85;6.57;;;;;;;;;;5073603;28;20426;-81
2022/12/24 03:54:31;;;;;;;36.00;7.30;;;;;;;;;;5059764;28;20507;-81
2022/12/24 03:56:57;;;;;;;35.03;6.85;;;;;;;;;;5059452;28;20469;-81
2022/12/24 03:59:23;;;;;;;32.60;6.32;;;;;;;;;;5092520;28;20762;-80
2022/12/24 04:01:49;;;;;;;35.80;6.68;;;;;;;;;;5074157;28;20481;-81
2022/12/24 04:04:15;;;;;;;35.97;6.60;;;;;;;;;;5075278;28;20478;-81
2022/12/24 04:06:41;;;;;;;36.00;6.70;;;;;;;;;;5056609;28;20398;-81
2022/12/24 04:09:07;;;;;;;35.70;6.65;;;;;;;;;;5081549;28;20423;-81
2022/12/24 04:11:33;;;;;;;34.38;6.43;;;;;;;;;;5082675;28;20422;-80
2022/12/24 04:13:59;;;;;;;37.03;6.18;;;;;;;;;;5084082;28;20420;-80
2022/12/24 04:16:26;;;;;;;35.17;6.75;;;;;;;;;;5092873;28;20451;-80
2022/12/24 04:18:52;;;;;;;37.60;6.63;;;;;;;;;;5074885;28;20416;-81
2022/12/24 04:21:18;;;;;;;30.92;6.28;;;;;;;;;;5085359;28;20424;-80
2022/12/24 04:23:45;;;;;;;29.73;5.95;;;;;;;;;;5055693;28;20425;-80
2022/12/24 04:26:12;;;;;;;37.25;6.85;;;;;;;;;;5073112;28;20418;-80
2022/12/24 04:28:38;;;;;;;32.88;6.20;;;;;;;;;;5080060;28;20436;-80
2022/12/24 04:31:06;;;;;;;35.30;6.33;;;;;;;;;;5093358;28;20416;-80
2022/12/24 04:33:32;;;;;;;36.05;6.60;;;;;;;;;;5092482;28;20420;-81
2022/12/24 04:35:59;;;;;;;43.55;7.22;;;;;;;;;;5085557;28;20814;-80
2022/12/24 04:38:25;;;;;;;36.90;7.10;;;;;;;;;;5080377;28;20416;-80
2022/12/24 04:41:05;;;;;;;38.17;6.95;;;;;;;;;;5092750;28;20495;-81
2022/12/24 04:43:31;;;;;;;38.08;6.75;;;;;;;;;;5091370;28;20423;-81
2022/12/24 04:46:14;;;;;;;41.08;6.68;;;8.60;99.90;;;;;;5080085;28;20417;-80
2022/12/24 04:48:41;;;;;;;40.95;6.78;;;;;;;;;;5091389;28;20759;-80
2022/12/24 04:51:08;;;;;;;39.75;7.22;;;;;;;;;;5087428;28;20974;-80
2022/12/24 04:53:35;;;;;;;38.53;6.78;;;8.70;99.90;;;;;;5088710;28;20421;-80
2022/12/24 04:56:01;;;;;;;44.55;7.22;;;;;;;;;;5071279;28;20453;-80
2022/12/24 04:58:28;;;;;;;42.05;7.13;;;;;;;;;;5087847;28;20417;-80
2022/12/24 05:00:54;;;;;;;39.25;7.13;;;;;;;;;;5087630;28;20418;-80
2022/12/24 05:03:20;;;;;;;42.03;7.30;;;;;;;;;;5074425;28;20420;-81
2022/12/24 05:05:46;;;;;;;34.85;6.70;;;;;;;;;;5074981;28;20425;-80
2022/12/24 05:08:12;;;;;;;41.50;7.53;;;8.90;99.90;;;;;;5071272;28;20784;-81
2022/12/24 05:10:39;;;;;;;41.47;7.25;;;;;;;;;;5088687;28;20765;-81
2022/12/24 05:13:05;;;;;;;40.37;7.30;;;;;;;;;;5087589;28;20500;-80
2022/12/24 05:15:31;;;;;;;40.42;6.85;;;;;;;;;;5088552;28;20734;-80
2022/12/24 05:17:57;;;;;;;45.60;7.55;;;;;;;;;;5089471;28;20464;-80
2022/12/24 05:20:23;;;;;;;38.80;7.03;;;;;;;;;;5072759;28;20417;-80
2022/12/24 05:28:23;;;;;;;45.78;7.90;;;;;;;;;;5091376;28;20556;-80
2022/12/24 05:30:49;;;;;;;41.28;7.60;;;;;;;;;;5092111;28;20418;-80
2022/12/24 05:33:15;;;;;;;42.22;7.47;;;;;;;;;;5073149;28;20931;-80
2022/12/24 05:35:41;;;;;;;49.28;7.60;;;;;;;;;;5073488;28;20505;-80
2022/12/24 05:38:07;;;;;;;48.78;7.50;;;;;;;;;;5093252;28;20402;-79
2022/12/24 05:40:33;;;;;;;49.05;7.28;;;;;;;;;;5091954;28;20509;-80
2022/12/24 05:42:59;;;;;;;40.97;6.82;;;;;;;;;;5089457;28;20912;-80
2022/12/24 05:45:25;;;;;;;41.50;7.07;;;;;;;;;;5084686;28;20410;-80
2022/12/24 05:47:51;;;;;;;39.80;8.15;;;;;;;;;;5089653;28;20441;-80
2022/12/24 05:50:18;;;;;;;41.50;7.45;;;;;;;;;;5092248;28;20417;-79
2022/12/24 05:52:44;;;;;;;41.90;7.25;;;;;;;;;;5079665;28;20458;-80
2022/12/24 05:55:10;;;;;;;45.13;8.02;;;;;;;;;;5073876;28;20415;-80
2022/12/24 05:57:36;;;;;;;39.28;7.68;;;;;;;;;;5065984;28;20503;-80
2022/12/24 06:00:02;;;;;;;46.42;7.00;;;;;;;;;;5096201;28;20930;-80
2022/12/24 06:02:28;;;;;;;48.88;8.57;;;;;;;;;;5094781;28;20447;-80
2022/12/24 06:04:54;;;;;;;53.25;11.55;;;;;;;;;;5090204;28;20424;-80
2022/12/24 06:07:20;;;;;;;47.58;8.48;;;;;;;;;;5092261;28;20425;-80
2022/12/24 06:09:46;;;;;;;52.10;7.68;;;;;;;;;;5084969;28;20765;-80
2022/12/24 06:12:12;;;;;;;51.65;8.63;;;;;;;;;;5091821;28;20427;-80
2022/12/24 06:14:38;;;;;;;49.22;8.13;;;;;;;;;;5089915;28;20497;-80
2022/12/24 06:17:04;;;;;;;43.92;7.57;;;;;;;;;;5055651;28;20410;-81
2022/12/24 06:19:30;;;;;;;57.00;9.02;;;;;;;;;;5082684;28;20419;-73
2022/12/24 06:21:57;;;;;;;49.90;8.93;;;;;;;;;;5078968;28;20484;-73
2022/12/24 06:24:23;;;;;;;51.53;8.35;;;;;;;;;;5093764;28;20424;-73
2022/12/24 06:26:49;;;;;;;47.20;9.00;;;;;;;;;;5068556;28;20770;-73
2022/12/24 06:29:18;;;;;;;49.05;8.57;;;;;;;;;;5093610;28;20420;-73
2022/12/24 06:31:44;;;;;;;47.13;7.65;;;;;;;;;;5095594;28;20431;-73
2022/12/24 06:34:10;;;;;;;64.95;9.57;;;;;;;;;;5073146;28;20421;-73
2022/12/24 06:36:36;;;;;;;54.75;9.07;;;;;;;;;;5078891;28;20686;-73
2022/12/24 06:39:02;;;;;;;45.53;7.63;;;;;;;;;;5086817;28;20418;-73
2022/12/24 06:41:28;;;;;;;51.03;9.02;;;;;;;;;;5091086;28;20512;-73
2022/12/24 06:43:54;;;;;;;52.88;7.93;;;;;;;;;;5055025;28;20417;-73
2022/12/24 06:46:21;;;;;;;51.05;8.63;;;;;;;;;;5093069;28;20412;-73
2022/12/24 06:48:47;;;;;;;45.85;7.80;;;;;;;;;;5092243;28;20522;-73
2022/12/24 06:51:14;;;;;;;53.33;8.87;;;;;;;;;;5086725;28;20432;-72
2022/12/24 06:53:40;;;;;;;42.88;7.60;;;;;;;;;;5092060;28;20586;-72
2022/12/24 06:56:08;;;;;;;41.58;8.85;;;;;;;;;;5090023;28;20416;-73
2022/12/24 06:58:34;;;;;;;46.50;8.30;;;;;;;;;;5089748;27;20500;-72
2022/12/24 07:01:01;;;;;;;43.78;7.63;;;;;;;;;;5087824;28;20910;-73
2022/12/24 07:03:28;;;;;;;47.90;8.30;;;;;;;;;;5083415;27;20923;-73
2022/12/24 07:05:54;;;;;;;48.33;7.57;;;;;;;;;;5086038;28;20573;-73
2022/12/24 07:08:20;;;;;;;43.88;7.75;;;;;;;;;;5072783;28;20421;-73
2022/12/24 07:10:48;;;;;;;46.77;7.90;;;;;;;;;;5074148;28;20416;-73
2022/12/24 07:13:14;;;;;;;50.17;8.25;;;;;;;;;;5091697;28;20416;-74
2022/12/24 07:15:43;;;;;;;48.92;8.65;;;;;;;;;;5091530;28;20501;-73
2022/12/24 07:18:09;;;;;;;53.22;8.27;;;;;;;;;;5093065;28;20541;-73
2022/12/24 07:20:35;;;;;;;49.65;8.25;;;;;;;;;;5090206;28;20476;-73
2022/12/24 07:23:01;;;;;;;41.53;7.93;;;;;;;;;;5091498;28;20498;-73
2022/12/24 07:25:27;;;;;;;46.05;7.65;;;;;;;;;;5075547;28;20762;-73
2022/12/24 07:27:53;;;;;;;45.38;7.95;;;;;;;;;;5092994;28;20423;-73
2022/12/24 07:30:19;;;;;;;40.83;7.50;;;;;;;;;;5087493;28;20495;-73
2022/12/24 07:32:46;;;;;;;42.13;8.45;;;;;;;;;;5073216;28;20489;-73
2022/12/24 07:35:12;;;;;;;40.05;8.02;;;;;;;;;;5092999;28;20412;-73
2022/12/24 07:37:38;;;;;;;48.08;7.65;;;;;;;;;;5076408;28;20499;-72
2022/12/24 07:40:06;;;;;;;48.97;8.20;;;;;;;;;;5077498;28;20748;-72
2022/12/24 07:42:33;;;;;;;43.47;7.40;;;;;;;;;;5084142;28;20810;-72
2022/12/24 07:44:59;;;;;;;39.50;7.72;;;;;;;;;;5085976;28;20443;-72
2022/12/24 07:47:25;;;;;;;47.50;8.77;;;;;;;;;;5072637;28;20428;-72
2022/12/24 07:49:51;;;;;;;48.88;8.15;;;;;;;;;;5087008;28;20420;-72
2022/12/24 07:52:17;;;;;;;54.08;8.70;;;;;;;;;;5091034;28;20903;-72
2022/12/24 07:54:43;;;;;;;50.37;8.83;;;;;;;;;;5076104;28;20412;-71
2022/12/24 07:57:10;;;;;;;54.40;8.73;;;;;;;;;;5093152;28;20721;-71
2022/12/24 07:59:38;;;;;;;47.13;8.25;;;;;;;;;;5089232;28;20450;-72
2022/12/24 08:02:04;;;;;;;47.20;9.25;;;;;;;;;;5087772;28;20467;-72
2022/12/24 08:04:35;;;;;;;52.28;8.57;;;;;;;;;;5082244;28;20413;-73
2022/12/24 08:07:01;;;;;;;52.70;9.27;;;;;;;;;;5090074;28;20434;-72
2022/12/24 08:09:27;;;;;;;45.55;8.43;;;;;;;;;;5086256;28;20432;-72
2022/12/24 08:11:54;;;;;;;48.97;8.02;;;;;;;;;;5085647;28;20420;-72
2022/12/24 08:14:20;;;;;;;45.75;7.97;;;;;;;;;;5088332;28;20492;-72
2022/12/24 08:16:46;;;;;;;51.87;9.40;;;;;;;;;;5073803;28;20447;-72
2022/12/24 08:19:12;;;;;;;44.30;8.52;;;;;;;;;;5069197;28;20520;-72
2022/12/24 08:21:38;;;;;;;54.45;11.02;;;;;;;;;;5091231;28;20412;-73
2022/12/24 08:24:05;;;;;;;55.33;8.73;;;;;;;;;;5090927;28;20503;-73
2022/12/24 08:26:31;;;;;;;53.67;8.38;;;;;;;;;;5062352;28;20424;-74
2022/12/24 08:28:57;;;;;;;47.88;8.57;;;;;;;;;;5074232;28;21039;-73
2022/12/24 08:31:23;;;;;;;49.00;8.02;;;;;;;;;;5089265;28;20420;-74
2022/12/24 08:33:49;;;;;;;52.58;8.60;;;;;;;;;;5066520;28;20445;-74
2022/12/24 08:36:15;;;;;;;57.35;9.98;;;;;;;;;;5072774;28;20423;-74
2022/12/24 08:38:41;;;;;;;47.28;8.30;;;;;;;;;;5083097;28;20412;-73
2022/12/24 08:41:07;;;;;;;44.95;8.23;;;;;;;;;;5058074;28;20503;-74
2022/12/24 08:43:33;;;;;;;53.15;8.88;;;;;;;;;;5068655;28;20422;-74
2022/12/24 08:46:04;;;;;;;46.57;7.97;;;8.80;99.90;;;;;;5088192;28;20512;-74
2022/12/24 08:48:31;;;;;;;51.03;7.82;;;8.20;99.90;;;;;;5092467;28;20495;-74
2022/12/24 08:50:57;;;;;;;45.58;7.82;;;;;;;;;;5091294;28;20505;-74
2022/12/24 08:53:24;;;;;;;40.55;7.68;;;;;;;;;;5096363;28;20422;-74
2022/12/24 08:55:50;;;;;;;47.47;9.85;;;;;;;;;;5081120;28;20549;-74
2022/12/24 08:58:16;;;;;;;41.65;7.45;;;;;;;;;;5091825;28;20436;-74
2022/12/24 09:00:42;;;;;;;44.53;8.88;;;;;;;;;;5090386;28;20412;-74
2022/12/24 09:03:11;;;;;;;40.28;7.10;;;;;;;;;;5089083;28;20903;-75
2022/12/24 09:05:39;;;;;;;43.22;8.13;;;;;;;;;;5090122;27;20450;-75
2022/12/24 09:08:05;;;;;;;41.70;7.75;;;;;;;;;;5088526;28;20408;-75
2022/12/24 09:10:31;;;;;;;46.80;7.93;;;;;;;;;;5088330;28;20423;-75
2022/12/24 09:12:57;;;;;;;47.83;9.25;;;;;;;;;;5091002;28;20473;-75
2022/12/24 09:15:24;;;;;;;42.83;8.32;;;;;;;;;;5073764;28;20927;-76
2022/12/24 09:17:50;;;;;;;44.35;8.98;;;;;;;;;;5093065;28;20469;-75
2022/12/24 09:20:16;;;;;;;44.90;8.02;;;;;;;;;;5094333;28;20408;-76
2022/12/24 09:22:42;;;;;;;44.05;7.88;;;;;;;;;;5069835;28;20511;-75
2022/12/24 09:25:09;;;;;;;44.08;8.02;;;;;;;;;;5092927;28;20423;-73
2022/12/24 09:27:35;;;;;;;45.78;7.78;;;;;;;;;;5096773;28;20400;-75
2022/12/24 09:30:01;;;;;;;52.47;9.00;;;;;;;;;;5096907;28;20403;-75
2022/12/24 09:32:27;;;;;;;45.60;8.13;;;;;;;;;;5096790;28;20437;-76
2022/12/24 09:34:53;;;;;;;42.60;8.23;;;;;;;;;;5090223;28;20812;-75
2022/12/24 09:37:20;;;;;;;46.60;7.78;;;;;;;;;;5069722;28;20451;-75
2022/12/24 09:39:46;;;;;;;42.25;7.57;;;;;;;;;;5076047;28;20412;-75
2022/12/24 09:42:30;;;;;;;42.50;7.55;;;;;;;;;;5073708;28;20428;-75
2022/12/24 09:45:11;;;;;;;44.00;8.23;;;9.30;99.90;;;;;;5073523;28;20414;-74
2022/12/24 09:48:02;;;;;;;49.60;9.98;;;9.50;99.90;;;;;;5079441;28;20495;-75
2022/12/24 09:50:34;;;;;;;42.05;8.13;;;;;;;;;;5080165;28;20624;-74
2022/12/24 09:53:02;;;;;;;42.65;8.50;;;;;;;;;;5093733;28;20429;-75
2022/12/24 09:55:32;;;;;;;44.65;8.90;;;;;;;;;;5068736;28;20905;-75
2022/12/24 09:58:00;;;;;;;46.15;7.60;;;;;;;;;;5094497;28;20400;-75
2022/12/24 10:00:32;;;;;;;46.20;7.78;;;9.90;99.90;;;;;;5077023;28;20418;-75
2022/12/24 10:02:58;;;;;;;48.17;10.40;;;;;;;;;;5094714;28;20956;-85
2022/12/24 10:05:37;;;;;;;37.53;7.63;;;;;;;;;;5076203;28;20907;-82
2022/12/24 10:08:10;;;;;;;37.95;7.43;;;;;;;;;;5078961;28;20404;-82
2022/12/24 10:10:49;;;;;;;33.78;6.70;;;;;;;;;;5076896;28;20427;-82
2022/12/24 10:13:33;;;;;;;32.78;6.35;;;;;;;;;;5059133;28;20429;-82
2022/12/24 10:16:02;;;;;;;30.30;5.80;;;;;;;;;;5085028;28;20421;-82
2022/12/24 10:18:47;;;;;;;32.28;6.30;;;;;;;;;;5083943;28;20440;-83
2022/12/24 10:21:27;;;;;;;29.92;5.90;;;;;;;;;;5082543;28;20420;-84
2022/12/24 10:23:53;;;;;;;31.17;6.05;;;;;;;;;;5095301;28;20423;-83
2022/12/24 10:26:19;;;;;;;34.45;8.82;;;;;;;;;;5077971;28;20915;-84
2022/12/24 10:29:20;;;;;;;30.60;6.57;;;;;;;;;;5096291;28;20869;-83
2022/12/24 10:31:58;;;;;;;31.13;5.75;;;;;;;;;;5010490;28;20504;-84
2022/12/24 10:34:27;;;;;;;31.88;5.78;;;;;;;;;;5084813;28;20443;-83
2022/12/24 10:36:53;;;;;;;31.08;6.20;;;;;;;;;;5075577;28;20433;-84
2022/12/24 10:39:21;;;;;;;34.50;6.28;;;;;;;;;;5094636;28;20469;-84
2022/12/24 10:41:56;;;;;;;31.83;6.35;;;;;;;;;;5066533;28;20939;-82
2022/12/24 10:44:23;;;;;;;31.33;6.47;;;;;;;;;;5079664;28;20562;-82
2022/12/24 10:46:50;;;;;;;30.58;6.45;;;;;;;;;;5077944;28;20483;-81
2022/12/24 10:49:18;;;;;;;35.70;6.57;;;;;;;;;;5060231;28;20408;-82
2022/12/24 10:51:50;;;;;;;42.15;7.57;;;;;;;;;;5093610;28;20417;-82
2022/12/24 10:54:21;;;;;;;28.90;6.00;;;;;;;;;;5085690;28;20439;-82
2022/12/24 10:56:51;;;;;;;32.70;6.53;;;;;;;;;;5079096;28;20908;-82
2022/12/24 10:59:24;;;;;;;35.40;6.82;;;;;;;;;;5071932;28;20431;-82
2022/12/24 11:01:50;;;;;;;30.55;6.45;;;;;;;;;;5090688;28;20416;-83
2022/12/24 11:04:18;;;;;;;30.58;6.50;;;;;;;;;;5076226;28;20446;-82
2022/12/24 11:06:56;;;;;;;31.95;6.15;;;;;;;;;;5075122;28;20416;-82
2022/12/24 11:09:28;;;;;;;33.03;6.07;;;;;;;;;;5090630;28;20454;-82
2022/12/24 11:11:55;;;;;;;30.98;6.07;;;;;;;;;;5085200;28;20428;-82
2022/12/24 11:14:21;;;;;;;31.85;6.30;;;9.60;99.90;;;;;;5090904;28;20455;-82
2022/12/24 11:16:54;;;;;;;33.75;6.20;;;;;;;;;;5091275;28;20416;-82
2022/12/24 11:19:39;;;;;;;28.10;5.73;;;;;;;;;;5070955;28;20962;-82
2022/12/24 11:22:06;;;;;;;29.67;5.43;;;;;;;;;;5093307;28;20931;-82
2022/12/24 11:24:34;;;;;;;27.67;5.55;;;;;;;;;;5093532;28;21273;-83
2022/12/24 11:27:32;;;;;;;29.83;5.80;;;9.70;99.90;;;;;;5083572;28;20921;-82
2022/12/24 11:30:17;;;;;;;29.93;6.10;;;;;;;;;;5086744;28;20443;-82
2022/12/24 11:32:45;;;;;;;26.70;5.25;;;;;;;;;;5091650;28;20499;-82
2022/12/24 11:35:20;;;;;;;28.20;6.00;;;;;;;;;;5092445;28;20937;-82
2022/12/24 11:37:47;;;;;;;25.90;5.32;;;10.00;99.90;;;;;;5083972;28;20415;-82
2022/12/24 11:40:22;;;;;;;29.20;5.57;;;;;;;;;;5087161;28;20422;-82
2022/12/24 11:42:52;;;;;;;33.22;6.35;;;;;;;;;;5068886;28;20428;-82
2022/12/24 11:45:25;;;;;;;26.80;5.60;;;;;;;;;;5084127;28;20499;-82
2022/12/24 11:47:54;;;;;;;28.88;6.65;;;10.00;99.90;;;;;;5073753;28;20442;-82
2022/12/24 11:50:23;;;;;;;28.27;5.73;;;;;;;;;;5090713;28;20419;-83
2022/12/24 11:53:03;;;;;;;26.70;5.45;;;10.20;99.90;;;;;;5065046;28;21339;-83
2022/12/24 11:55:32;;;;;;;25.38;5.90;;;;;;;;;;5089493;28;20419;-83
2022/12/24 11:58:01;;;;;;;24.02;4.75;;;;;;;;;;5074840;28;20803;-83
2022/12/24 12:00:28;;;;;;;28.02;5.60;;;;;;;;;;5084809;28;20422;-82
2022/12/24 12:02:55;;;;;;;24.75;5.43;;;;;;;;;;5086004;28;20423;-83
2022/12/24 12:05:24;;;;;;;27.65;5.57;;;;;;;;;;5091126;28;20420;-82
2022/12/24 12:07:52;;;;;;;25.38;5.25;;;;;;;;;;5089616;28;20422;-82
2022/12/24 12:10:19;;;;;;;24.08;4.88;;;;;;;;;;5091869;28;20717;-81
2022/12/24 12:12:54;;;;;;;23.77;4.80;;;10.10;99.90;;;;;;5082446;28;20826;-82
2022/12/24 12:15:43;;;;;;;27.80;5.10;;;9.70;99.90;;;;;;5069738;28;20962;-81
2022/12/24 12:18:11;;;;;;;23.73;5.10;;;;;;;;;;5089900;28;20589;-81
2022/12/24 12:20:43;;;;;;;25.85;5.53;;;;;;;;;;5092933;28;20419;-81
2022/12/24 12:23:19;;;;;;;26.52;5.13;;;;;;;;;;5093213;28;20903;-81
2022/12/24 12:26:04;;;;;;;23.37;4.97;;;;;;;;;;5075126;28;20927;-82
2022/12/24 12:28:36;;;;;;;24.30;5.30;;;;;;;;;;5088255;28;20431;-82
2022/12/24 12:31:08;;;;;;;24.77;5.60;;;;;;;;;;5086466;28;20416;-80
2022/12/24 12:33:48;;;;;;;26.85;4.95;;;;;;;;;;5087404;28;20414;-82
2022/12/24 12:36:17;;;;;;;23.50;4.65;;;;;;;;;;5077068;28;20412;-78
2022/12/24 12:38:43;;;;;;;23.80;5.43;;;;;;;;;;5084197;28;20420;-77
2022/12/24 12:41:29;;;;;;;23.20;4.75;;;9.90;99.90;;;;;;5092306;28;20935;-77
2022/12/24 12:44:04;;;;;;;25.65;5.22;;;;;;;;;;5075721;28;20420;-77
2022/12/24 12:46:47;;;;;;;19.27;4.82;;;;;;;;;;5084009;28;20422;-77
2022/12/24 12:49:31;;;;;;;28.00;5.30;;;;;;;;;;5076270;28;20431;-77
2022/12/24 12:52:04;;;;;;;24.02;4.97;;;;;;;;;;5071296;28;20463;-76
2022/12/24 12:54:46;;;;;;;25.85;4.97;;;;;;;;;;5067891;28;20441;-76
2022/12/24 12:57:13;;;;;;;21.85;4.32;;;;;;;;;;5084346;28;20477;-76
2022/12/24 12:59:58;;;;;;;21.58;4.50;;;;;;;;;;5089469;28;20420;-76
2022/12/24 13:02:39;;;;;;;26.25;4.72;;;;;;;;;;5059803;28;20413;-76
2022/12/24 13:05:18;;;;;;;24.27;4.82;;;;;;;;;;5086375;28;20424;-76
2022/12/24 13:07:53;;;;;;;22.80;4.90;;;;;;;;;;5087320;28;20427;-76
2022/12/24 13:10:28;;;;;;;20.83;4.75;;;;;;;;;;5083834;28;20419;-77
2022/12/24 13:12:54;;;;;;;22.58;5.10;;;;;;;;;;5082919;28;20799;-77
2022/12/24 13:15:20;;;;;;;24.10;5.00;;;;;;;;;;5074669;28;20412;-77
2022/12/24 13:17:53;;;;;;;21.80;4.83;;;;;;;;;;5089096;28;20412;-77
2022/12/24 13:20:28;;;;;;;24.25;4.55;;;10.00;99.90;;;;;;5092185;28;20411;-77
2022/12/24 13:23:00;;;;;;;25.50;5.38;;;;;;;;;;5090049;28;20415;-77
2022/12/24 13:25:37;;;;;;;24.73;4.78;;;;;;;;;;5083944;28;20416;-77
2022/12/24 13:28:22;;;;;;;26.10;4.70;;;;;;;;;;5084508;28;21097;-77
2022/12/24 13:30:49;;;;;;;24.70;5.20;;;;;;;;;;5084034;28;20421;-78
2022/12/24 13:33:36;;;;;;;24.65;4.95;;;9.60;99.90;;;;;;5089431;28;20427;-78
2022/12/24 13:36:08;;;;;;;21.93;4.30;;;9.90;99.90;;;;;;5091355;28;20840;-78
2022/12/24 13:38:42;;;;;;;22.53;4.63;;;;;;;;;;5075613;28;20465;-78
2022/12/24 13:41:33;;;;;;;27.30;5.70;;;9.80;99.90;;;;;;5084504;28;20516;-77
2022/12/24 13:44:12;;;;;;;24.40;4.60;;;;;;;;;;5086001;28;20995;-77
2022/12/24 13:46:56;;;;;;;25.83;5.22;;;;;;;;;;5094623;28;20420;-77
2022/12/24 13:49:26;;;;;;;23.52;4.80;;;;;;;;;;5095953;27;20520;-76
2022/12/24 13:52:04;;;;;;;22.27;4.43;;;;;;;;;;5090609;28;20923;-77
2022/12/24 13:54:30;;;;;;;20.33;4.78;;;;;;;;;;5091618;28;20436;-77
2022/12/24 13:56:57;;;;;;;21.73;4.83;;;;;;;;;;5093335;28;20396;-76
2022/12/24 13:59:26;;;;;;;24.58;5.10;;;;;;;;;;5070771;28;20442;-77
2022/12/24 14:01:53;;;;;;;23.35;5.20;;;;;;;;;;5080537;28;21001;-77
2022/12/24 14:04:27;;;;;;;25.63;5.27;;;;;;;;;;5093348;28;20590;-76
2022/12/24 14:06:54;;;;;;;24.42;4.70;;;;;;;;;;5088451;28;20428;-76
2022/12/24 14:09:23;;;;;;;22.60;4.78;;;;;;;;;;5079590;27;20523;-76
2022/12/24 14:11:55;;;;;;;23.95;4.93;;;;;;;;;;5091976;28;20431;-76
2022/12/24 14:14:32;;;;;;;19.30;4.35;;;;;;;;;;5094036;28;20409;-77
2022/12/24 14:16:59;;;;;;;26.35;4.80;;;;;;;;;;5090909;28;20483;-77
2022/12/24 14:19:28;;;;;;;24.48;4.88;;;;;;;;;;5090858;28;20760;-77
2022/12/24 14:22:13;;;;;;;26.48;5.57;;;;;;;;;;5093958;27;20417;-77
2022/12/24 14:24:42;;;;;;;18.33;4.28;;;;;;;;;;5108535;28;20405;-77
2022/12/24 14:27:32;;;;;;;20.77;4.47;;;9.60;99.90;;;;;;5083854;28;20420;-77
2022/12/24 14:30:04;;;;;;;16.63;4.03;;;;;;;;;;5085605;28;20450;-77
2022/12/24 14:32:37;;;;;;;20.10;4.00;;;;;;;;;;5089565;28;20499;-77
2022/12/24 14:35:08;;;;;;;18.15;3.83;;;;;;;;;;5087475;28;20438;-77
2022/12/24 14:37:34;;;;;;;23.13;4.65;;;9.00;99.90;;;;;;5089302;28;20419;-77
2022/12/24 14:40:01;;;;;;;16.98;3.95;;;;;;;;;;5092411;27;20493;-77